sensor_id;sensor_type;location;lat;lon;timestamp;P1;durP1;ratioP1;P2;durP2;ratioP2
76113;SDS011;64845;53.086;5.834;2023-06-05T00:01:56;4.93;;;4.03;;
76113;SDS011;64845;53.086;5.834;2023-06-05T00:04:21;5.88;;;3.85;;
76113;SDS011;64845;53.086;5.834;2023-06-05T00:06:48;5.32;;;3.88;;
76113;SDS011;64845;53.086;5.834;2023-06-05T00:09:15;5.63;;;4.25;;
76113;SDS011;64845;53.086;5.834;2023-06-05T00:11:41;5.57;;;4.28;;
76113;SDS011;64845;53.086;5.834;2023-06-05T00:14:06;6.55;;;4.32;;
76113;SDS011;64845;53.086;5.834;2023-06-05T00:16:33;6.43;;;4.40;;
76113;SDS011;64845;53.086;5.834;2023-06-05T00:18:59;7.15;;;4.35;;
76113;SDS011;64845;53.086;5.834;2023-06-05T00:21:25;7.28;;;3.90;;
76113;SDS011;64845;53.086;5.834;2023-06-05T00:23:51;6.53;;;4.35;;
76113;SDS011;64845;53.086;5.834;2023-06-05T00:26:16;9.68;;;4.45;;
76113;SDS011;64845;53.086;5.834;2023-06-05T00:28:41;6.25;;;4.00;;
76113;SDS011;64845;53.086;5.834;2023-06-05T00:31:07;8.02;;;4.00;;
76113;SDS011;64845;53.086;5.834;2023-06-05T00:33:32;4.90;;;3.88;;
76113;SDS011;64845;53.086;5.834;2023-06-05T00:35:58;4.43;;;3.50;;
76113;SDS011;64845;53.086;5.834;2023-06-05T00:38:23;5.63;;;4.15;;
76113;SDS011;64845;53.086;5.834;2023-06-05T00:40:48;5.28;;;3.63;;
76113;SDS011;64845;53.086;5.834;2023-06-05T00:43:14;6.57;;;3.78;;
76113;SDS011;64845;53.086;5.834;2023-06-05T00:45:39;5.22;;;3.88;;
76113;SDS011;64845;53.086;5.834;2023-06-05T00:48:05;7.22;;;4.10;;
76113;SDS011;64845;53.086;5.834;2023-06-05T00:50:32;4.25;;;3.65;;
76113;SDS011;64845;53.086;5.834;2023-06-05T00:52:58;6.05;;;4.50;;
76113;SDS011;64845;53.086;5.834;2023-06-05T00:55:26;5.55;;;4.05;;
76113;SDS011;64845;53.086;5.834;2023-06-05T00:57:52;7.53;;;4.13;;
76113;SDS011;64845;53.086;5.834;2023-06-05T01:00:19;7.03;;;4.25;;
76113;SDS011;64845;53.086;5.834;2023-06-05T01:02:44;11.25;;;3.92;;
76113;SDS011;64845;53.086;5.834;2023-06-05T01:05:10;6.32;;;3.90;;
76113;SDS011;64845;53.086;5.834;2023-06-05T01:07:38;5.40;;;3.78;;
76113;SDS011;64845;53.086;5.834;2023-06-05T01:10:05;7.53;;;3.90;;
76113;SDS011;64845;53.086;5.834;2023-06-05T01:12:38;4.85;;;3.85;;
76113;SDS011;64845;53.086;5.834;2023-06-05T01:15:09;6.35;;;3.80;;
76113;SDS011;64845;53.086;5.834;2023-06-05T01:17:36;5.05;;;4.22;;
76113;SDS011;64845;53.086;5.834;2023-06-05T01:20:02;5.00;;;4.10;;
76113;SDS011;64845;53.086;5.834;2023-06-05T01:22:29;7.43;;;4.75;;
76113;SDS011;64845;53.086;5.834;2023-06-05T01:24:55;4.85;;;4.03;;
76113;SDS011;64845;53.086;5.834;2023-06-05T01:30:30;6.22;;;4.10;;
76113;SDS011;64845;53.086;5.834;2023-06-05T01:33:22;7.93;;;3.80;;
76113;SDS011;64845;53.086;5.834;2023-06-05T01:35:51;5.53;;;4.13;;
76113;SDS011;64845;53.086;5.834;2023-06-05T01:38:18;5.35;;;3.70;;
76113;SDS011;64845;53.086;5.834;2023-06-05T01:40:44;8.75;;;4.05;;
76113;SDS011;64845;53.086;5.834;2023-06-05T01:43:12;6.35;;;4.35;;
76113;SDS011;64845;53.086;5.834;2023-06-05T01:45:38;4.65;;;3.50;;
76113;SDS011;64845;53.086;5.834;2023-06-05T01:48:06;5.07;;;3.80;;
76113;SDS011;64845;53.086;5.834;2023-06-05T01:50:33;5.88;;;3.97;;
76113;SDS011;64845;53.086;5.834;2023-06-05T01:53:01;5.70;;;3.70;;
76113;SDS011;64845;53.086;5.834;2023-06-05T01:55:27;4.32;;;3.85;;
76113;SDS011;64845;53.086;5.834;2023-06-05T01:57:53;4.22;;;3.33;;
76113;SDS011;64845;53.086;5.834;2023-06-05T02:00:19;5.13;;;3.83;;
76113;SDS011;64845;53.086;5.834;2023-06-05T02:02:45;6.20;;;3.35;;
76113;SDS011;64845;53.086;5.834;2023-06-05T02:05:12;5.13;;;3.35;;
76113;SDS011;64845;53.086;5.834;2023-06-05T02:07:40;5.40;;;3.47;;
76113;SDS011;64845;53.086;5.834;2023-06-05T02:10:07;4.65;;;2.97;;
76113;SDS011;64845;53.086;5.834;2023-06-05T02:12:33;5.55;;;2.90;;
76113;SDS011;64845;53.086;5.834;2023-06-05T02:14:59;4.85;;;2.97;;
76113;SDS011;64845;53.086;5.834;2023-06-05T02:17:25;5.10;;;3.15;;
76113;SDS011;64845;53.086;5.834;2023-06-05T02:19:51;5.30;;;3.00;;
76113;SDS011;64845;53.086;5.834;2023-06-05T02:22:17;5.53;;;2.63;;
76113;SDS011;64845;53.086;5.834;2023-06-05T02:24:43;5.22;;;2.72;;
76113;SDS011;64845;53.086;5.834;2023-06-05T02:27:09;3.92;;;2.42;;
76113;SDS011;64845;53.086;5.834;2023-06-05T02:29:36;4.38;;;3.10;;
76113;SDS011;64845;53.086;5.834;2023-06-05T02:32:02;6.22;;;2.70;;
76113;SDS011;64845;53.086;5.834;2023-06-05T02:34:28;3.85;;;2.90;;
76113;SDS011;64845;53.086;5.834;2023-06-05T02:36:53;5.90;;;2.72;;
76113;SDS011;64845;53.086;5.834;2023-06-05T02:39:20;5.00;;;2.67;;
76113;SDS011;64845;53.086;5.834;2023-06-05T02:41:46;5.78;;;2.88;;
76113;SDS011;64845;53.086;5.834;2023-06-05T02:44:11;4.00;;;2.88;;
76113;SDS011;64845;53.086;5.834;2023-06-05T02:46:36;3.78;;;2.78;;
76113;SDS011;64845;53.086;5.834;2023-06-05T02:49:02;4.80;;;3.22;;
76113;SDS011;64845;53.086;5.834;2023-06-05T02:51:27;4.43;;;2.60;;
76113;SDS011;64845;53.086;5.834;2023-06-05T02:53:53;5.07;;;3.50;;
76113;SDS011;64845;53.086;5.834;2023-06-05T02:56:18;5.50;;;2.83;;
76113;SDS011;64845;53.086;5.834;2023-06-05T02:58:43;3.95;;;3.00;;
76113;SDS011;64845;53.086;5.834;2023-06-05T03:01:10;3.72;;;2.88;;
76113;SDS011;64845;53.086;5.834;2023-06-05T03:03:36;4.45;;;3.15;;
76113;SDS011;64845;53.086;5.834;2023-06-05T03:06:02;4.80;;;3.38;;
76113;SDS011;64845;53.086;5.834;2023-06-05T03:08:32;5.75;;;3.95;;
76113;SDS011;64845;53.086;5.834;2023-06-05T03:11:02;7.88;;;3.70;;
76113;SDS011;64845;53.086;5.834;2023-06-05T03:13:28;5.50;;;3.53;;
76113;SDS011;64845;53.086;5.834;2023-06-05T03:15:56;4.22;;;3.83;;
76113;SDS011;64845;53.086;5.834;2023-06-05T03:18:23;10.30;;;4.30;;
76113;SDS011;64845;53.086;5.834;2023-06-05T03:20:49;6.13;;;4.47;;
76113;SDS011;64845;53.086;5.834;2023-06-05T03:23:16;5.50;;;4.25;;
76113;SDS011;64845;53.086;5.834;2023-06-05T03:25:41;7.70;;;4.97;;
76113;SDS011;64845;53.086;5.834;2023-06-05T03:28:07;7.05;;;4.90;;
76113;SDS011;64845;53.086;5.834;2023-06-05T03:30:33;5.57;;;4.65;;
76113;SDS011;64845;53.086;5.834;2023-06-05T03:32:58;8.13;;;4.93;;
76113;SDS011;64845;53.086;5.834;2023-06-05T03:35:23;7.13;;;5.25;;
76113;SDS011;64845;53.086;5.834;2023-06-05T03:37:49;7.38;;;5.28;;
76113;SDS011;64845;53.086;5.834;2023-06-05T03:40:14;7.32;;;5.50;;
76113;SDS011;64845;53.086;5.834;2023-06-05T03:42:40;8.73;;;5.40;;
76113;SDS011;64845;53.086;5.834;2023-06-05T03:45:06;8.38;;;5.30;;
76113;SDS011;64845;53.086;5.834;2023-06-05T03:47:31;7.40;;;5.95;;
76113;SDS011;64845;53.086;5.834;2023-06-05T03:49:59;8.45;;;5.57;;
76113;SDS011;64845;53.086;5.834;2023-06-05T03:52:25;8.93;;;6.03;;
76113;SDS011;64845;53.086;5.834;2023-06-05T03:54:51;6.93;;;5.57;;
76113;SDS011;64845;53.086;5.834;2023-06-05T03:57:20;7.70;;;5.57;;
76113;SDS011;64845;53.086;5.834;2023-06-05T03:59:46;6.85;;;5.22;;
76113;SDS011;64845;53.086;5.834;2023-06-05T04:02:15;7.65;;;5.50;;
76113;SDS011;64845;53.086;5.834;2023-06-05T04:04:40;7.57;;;6.00;;
76113;SDS011;64845;53.086;5.834;2023-06-05T04:07:05;9.20;;;6.50;;
76113;SDS011;64845;53.086;5.834;2023-06-05T04:09:31;9.20;;;5.53;;
76113;SDS011;64845;53.086;5.834;2023-06-05T04:11:57;7.38;;;5.40;;
76113;SDS011;64845;53.086;5.834;2023-06-05T04:14:22;9.13;;;5.68;;
76113;SDS011;64845;53.086;5.834;2023-06-05T04:16:48;7.22;;;5.88;;
76113;SDS011;64845;53.086;5.834;2023-06-05T04:19:13;7.20;;;5.35;;
76113;SDS011;64845;53.086;5.834;2023-06-05T04:21:39;9.32;;;5.85;;
76113;SDS011;64845;53.086;5.834;2023-06-05T04:24:05;8.38;;;5.32;;
76113;SDS011;64845;53.086;5.834;2023-06-05T04:29:02;6.05;;;4.80;;
76113;SDS011;64845;53.086;5.834;2023-06-05T04:31:31;7.65;;;4.70;;
76113;SDS011;64845;53.086;5.834;2023-06-05T04:33:57;6.68;;;4.53;;
76113;SDS011;64845;53.086;5.834;2023-06-05T04:36:24;7.97;;;5.18;;
76113;SDS011;64845;53.086;5.834;2023-06-05T04:38:50;6.55;;;4.80;;
76113;SDS011;64845;53.086;5.834;2023-06-05T04:41:16;7.85;;;4.63;;
76113;SDS011;64845;53.086;5.834;2023-06-05T04:43:41;5.70;;;4.35;;
76113;SDS011;64845;53.086;5.834;2023-06-05T04:46:07;10.25;;;4.50;;
76113;SDS011;64845;53.086;5.834;2023-06-05T04:48:33;4.90;;;4.03;;
76113;SDS011;64845;53.086;5.834;2023-06-05T04:50:59;9.98;;;4.10;;
76113;SDS011;64845;53.086;5.834;2023-06-05T04:53:25;5.97;;;3.60;;
76113;SDS011;64845;53.086;5.834;2023-06-05T04:55:53;6.15;;;3.88;;
76113;SDS011;64845;53.086;5.834;2023-06-05T04:58:20;4.25;;;3.30;;
76113;SDS011;64845;53.086;5.834;2023-06-05T05:00:46;3.15;;;2.83;;
76113;SDS011;64845;53.086;5.834;2023-06-05T05:03:14;4.13;;;2.70;;
76113;SDS011;64845;53.086;5.834;2023-06-05T05:05:39;5.72;;;3.15;;
76113;SDS011;64845;53.086;5.834;2023-06-05T05:08:05;2.83;;;2.53;;
76113;SDS011;64845;53.086;5.834;2023-06-05T05:10:31;2.55;;;2.30;;
76113;SDS011;64845;53.086;5.834;2023-06-05T05:12:57;3.88;;;2.55;;
76113;SDS011;64845;53.086;5.834;2023-06-05T05:15:26;5.05;;;2.70;;
76113;SDS011;64845;53.086;5.834;2023-06-05T05:17:52;4.13;;;2.33;;
76113;SDS011;64845;53.086;5.834;2023-06-05T05:20:17;2.78;;;2.40;;
76113;SDS011;64845;53.086;5.834;2023-06-05T05:22:43;4.35;;;2.50;;
76113;SDS011;64845;53.086;5.834;2023-06-05T05:25:09;2.95;;;2.05;;
76113;SDS011;64845;53.086;5.834;2023-06-05T05:27:34;4.45;;;2.40;;
76113;SDS011;64845;53.086;5.834;2023-06-05T05:29:59;2.83;;;1.98;;
76113;SDS011;64845;53.086;5.834;2023-06-05T05:32:25;2.40;;;2.10;;
76113;SDS011;64845;53.086;5.834;2023-06-05T05:34:50;7.47;;;2.55;;
76113;SDS011;64845;53.086;5.834;2023-06-05T05:37:16;3.15;;;2.00;;
76113;SDS011;64845;53.086;5.834;2023-06-05T05:39:41;2.50;;;2.28;;
76113;SDS011;64845;53.086;5.834;2023-06-05T05:42:07;3.28;;;2.08;;
76113;SDS011;64845;53.086;5.834;2023-06-05T05:44:32;3.03;;;1.90;;
76113;SDS011;64845;53.086;5.834;2023-06-05T05:46:58;3.50;;;2.28;;
76113;SDS011;64845;53.086;5.834;2023-06-05T05:49:23;2.10;;;1.90;;
76113;SDS011;64845;53.086;5.834;2023-06-05T05:51:50;2.20;;;2.00;;
76113;SDS011;64845;53.086;5.834;2023-06-05T05:54:41;2.58;;;2.08;;
76113;SDS011;64845;53.086;5.834;2023-06-05T05:57:07;2.25;;;1.63;;
76113;SDS011;64845;53.086;5.834;2023-06-05T05:59:32;6.82;;;2.00;;
76113;SDS011;64845;53.086;5.834;2023-06-05T06:01:57;3.55;;;2.40;;
76113;SDS011;64845;53.086;5.834;2023-06-05T06:04:24;2.38;;;1.75;;
76113;SDS011;64845;53.086;5.834;2023-06-05T06:06:49;2.35;;;1.80;;
76113;SDS011;64845;53.086;5.834;2023-06-05T06:09:17;4.25;;;2.00;;
76113;SDS011;64845;53.086;5.834;2023-06-05T06:11:43;2.63;;;1.80;;
76113;SDS011;64845;53.086;5.834;2023-06-05T06:14:09;2.85;;;1.70;;
76113;SDS011;64845;53.086;5.834;2023-06-05T06:16:36;2.53;;;1.95;;
76113;SDS011;64845;53.086;5.834;2023-06-05T06:19:05;5.40;;;2.10;;
76113;SDS011;64845;53.086;5.834;2023-06-05T06:21:30;4.47;;;2.15;;
76113;SDS011;64845;53.086;5.834;2023-06-05T06:23:56;3.13;;;2.08;;
76113;SDS011;64845;53.086;5.834;2023-06-05T06:26:22;2.20;;;2.00;;
76113;SDS011;64845;53.086;5.834;2023-06-05T06:28:48;2.95;;;1.95;;
76113;SDS011;64845;53.086;5.834;2023-06-05T06:31:13;2.25;;;1.90;;
76113;SDS011;64845;53.086;5.834;2023-06-05T06:33:39;3.28;;;2.30;;
76113;SDS011;64845;53.086;5.834;2023-06-05T06:36:05;3.15;;;2.20;;
76113;SDS011;64845;53.086;5.834;2023-06-05T06:38:31;6.78;;;3.17;;
76113;SDS011;64845;53.086;5.834;2023-06-05T06:40:57;3.63;;;2.20;;
76113;SDS011;64845;53.086;5.834;2023-06-05T06:43:23;5.30;;;2.50;;
76113;SDS011;64845;53.086;5.834;2023-06-05T06:45:49;2.47;;;1.92;;
76113;SDS011;64845;53.086;5.834;2023-06-05T06:48:15;3.00;;;2.30;;
76113;SDS011;64845;53.086;5.834;2023-06-05T06:50:45;4.45;;;2.38;;
76113;SDS011;64845;53.086;5.834;2023-06-05T06:53:10;4.22;;;2.40;;
76113;SDS011;64845;53.086;5.834;2023-06-05T06:55:36;6.93;;;2.67;;
76113;SDS011;64845;53.086;5.834;2023-06-05T06:58:01;3.80;;;2.22;;
76113;SDS011;64845;53.086;5.834;2023-06-05T07:00:27;4.85;;;2.53;;
76113;SDS011;64845;53.086;5.834;2023-06-05T07:02:53;3.80;;;2.45;;
76113;SDS011;64845;53.086;5.834;2023-06-05T07:05:18;4.40;;;2.40;;
76113;SDS011;64845;53.086;5.834;2023-06-05T07:07:44;3.72;;;2.30;;
76113;SDS011;64845;53.086;5.834;2023-06-05T07:10:10;4.88;;;2.20;;
76113;SDS011;64845;53.086;5.834;2023-06-05T07:12:36;6.57;;;2.28;;
76113;SDS011;64845;53.086;5.834;2023-06-05T07:15:02;3.58;;;2.25;;
76113;SDS011;64845;53.086;5.834;2023-06-05T07:17:27;4.47;;;2.30;;
76113;SDS011;64845;53.086;5.834;2023-06-05T07:19:55;4.45;;;2.58;;
76113;SDS011;64845;53.086;5.834;2023-06-05T07:22:21;4.80;;;2.35;;
76113;SDS011;64845;53.086;5.834;2023-06-05T07:24:46;5.90;;;2.65;;
76113;SDS011;64845;53.086;5.834;2023-06-05T07:27:13;5.93;;;2.35;;
76113;SDS011;64845;53.086;5.834;2023-06-05T07:29:40;3.25;;;2.25;;
76113;SDS011;64845;53.086;5.834;2023-06-05T07:32:05;6.65;;;2.28;;
76113;SDS011;64845;53.086;5.834;2023-06-05T07:34:32;5.65;;;2.70;;
76113;SDS011;64845;53.086;5.834;2023-06-05T07:36:58;7.45;;;2.60;;
76113;SDS011;64845;53.086;5.834;2023-06-05T07:39:25;6.68;;;3.50;;
76113;SDS011;64845;53.086;5.834;2023-06-05T07:41:51;4.45;;;3.10;;
76113;SDS011;64845;53.086;5.834;2023-06-05T07:44:17;8.20;;;3.35;;
76113;SDS011;64845;53.086;5.834;2023-06-05T07:46:44;5.22;;;3.47;;
76113;SDS011;64845;53.086;5.834;2023-06-05T07:49:11;5.47;;;3.30;;
76113;SDS011;64845;53.086;5.834;2023-06-05T07:51:37;6.85;;;3.30;;
76113;SDS011;64845;53.086;5.834;2023-06-05T07:54:03;4.88;;;3.08;;
76113;SDS011;64845;53.086;5.834;2023-06-05T07:56:30;5.28;;;3.20;;
76113;SDS011;64845;53.086;5.834;2023-06-05T07:58:56;5.15;;;3.10;;
76113;SDS011;64845;53.086;5.834;2023-06-05T08:01:22;6.43;;;3.42;;
76113;SDS011;64845;53.086;5.834;2023-06-05T08:03:47;5.30;;;2.88;;
76113;SDS011;64845;53.086;5.834;2023-06-05T08:06:13;7.00;;;3.35;;
76113;SDS011;64845;53.086;5.834;2023-06-05T08:08:38;8.18;;;3.15;;
76113;SDS011;64845;53.086;5.834;2023-06-05T08:11:04;7.22;;;2.92;;
76113;SDS011;64845;53.086;5.834;2023-06-05T08:13:29;4.82;;;2.75;;
76113;SDS011;64845;53.086;5.834;2023-06-05T08:15:55;3.88;;;2.58;;
76113;SDS011;64845;53.086;5.834;2023-06-05T08:18:20;5.65;;;2.70;;
76113;SDS011;64845;53.086;5.834;2023-06-05T08:20:46;5.82;;;3.17;;
76113;SDS011;64845;53.086;5.834;2023-06-05T08:23:11;4.03;;;2.90;;
76113;SDS011;64845;53.086;5.834;2023-06-05T08:25:37;6.68;;;3.05;;
76113;SDS011;64845;53.086;5.834;2023-06-05T08:28:03;6.00;;;2.70;;
76113;SDS011;64845;53.086;5.834;2023-06-05T08:30:28;4.32;;;2.80;;
76113;SDS011;64845;53.086;5.834;2023-06-05T08:32:54;5.32;;;2.47;;
76113;SDS011;64845;53.086;5.834;2023-06-05T08:35:19;4.18;;;2.85;;
76113;SDS011;64845;53.086;5.834;2023-06-05T08:37:44;5.05;;;2.50;;
76113;SDS011;64845;53.086;5.834;2023-06-05T08:40:10;7.47;;;2.72;;
76113;SDS011;64845;53.086;5.834;2023-06-05T08:42:37;4.65;;;2.88;;
76113;SDS011;64845;53.086;5.834;2023-06-05T08:45:04;7.53;;;3.30;;
76113;SDS011;64845;53.086;5.834;2023-06-05T08:47:35;5.65;;;2.95;;
76113;SDS011;64845;53.086;5.834;2023-06-05T08:50:03;6.30;;;3.53;;
76113;SDS011;64845;53.086;5.834;2023-06-05T08:52:32;16.95;;;3.47;;
76113;SDS011;64845;53.086;5.834;2023-06-05T08:54:59;5.38;;;3.08;;
76113;SDS011;64845;53.086;5.834;2023-06-05T08:57:26;5.95;;;2.92;;
76113;SDS011;64845;53.086;5.834;2023-06-05T08:59:53;5.32;;;2.88;;
76113;SDS011;64845;53.086;5.834;2023-06-05T09:02:18;5.65;;;3.38;;
76113;SDS011;64845;53.086;5.834;2023-06-05T09:04:43;5.75;;;2.63;;
76113;SDS011;64845;53.086;5.834;2023-06-05T09:07:09;5.18;;;2.97;;
76113;SDS011;64845;53.086;5.834;2023-06-05T09:09:37;6.55;;;3.30;;
76113;SDS011;64845;53.086;5.834;2023-06-05T09:12:03;5.53;;;3.03;;
76113;SDS011;64845;53.086;5.834;2023-06-05T09:14:32;4.90;;;3.03;;
76113;SDS011;64845;53.086;5.834;2023-06-05T09:16:58;5.68;;;3.10;;
76113;SDS011;64845;53.086;5.834;2023-06-05T09:19:28;6.65;;;3.22;;
76113;SDS011;64845;53.086;5.834;2023-06-05T09:22:01;7.88;;;3.60;;
76113;SDS011;64845;53.086;5.834;2023-06-05T09:24:26;5.05;;;3.15;;
76113;SDS011;64845;53.086;5.834;2023-06-05T09:26:58;7.15;;;3.97;;
76113;SDS011;64845;53.086;5.834;2023-06-05T09:29:31;5.55;;;3.75;;
76113;SDS011;64845;53.086;5.834;2023-06-05T09:31:59;4.40;;;3.88;;
76113;SDS011;64845;53.086;5.834;2023-06-05T09:34:37;9.32;;;3.42;;
76113;SDS011;64845;53.086;5.834;2023-06-05T09:37:10;6.32;;;3.75;;
76113;SDS011;64845;53.086;5.834;2023-06-05T09:39:37;8.02;;;3.92;;
76113;SDS011;64845;53.086;5.834;2023-06-05T09:42:04;7.03;;;3.40;;
76113;SDS011;64845;53.086;5.834;2023-06-05T09:44:30;4.88;;;3.50;;
76113;SDS011;64845;53.086;5.834;2023-06-05T09:47:05;7.95;;;3.70;;
76113;SDS011;64845;53.086;5.834;2023-06-05T09:52:06;5.78;;;4.00;;
76113;SDS011;64845;53.086;5.834;2023-06-05T09:54:32;5.47;;;3.97;;
76113;SDS011;64845;53.086;5.834;2023-06-05T09:57:02;5.43;;;3.90;;
76113;SDS011;64845;53.086;5.834;2023-06-05T09:59:29;6.85;;;3.80;;
76113;SDS011;64845;53.086;5.834;2023-06-05T10:01:56;7.32;;;3.42;;
76113;SDS011;64845;53.086;5.834;2023-06-05T10:04:25;5.28;;;3.50;;
76113;SDS011;64845;53.086;5.834;2023-06-05T10:06:54;4.68;;;3.67;;
76113;SDS011;64845;53.086;5.834;2023-06-05T10:09:22;5.87;;;3.90;;
76113;SDS011;64845;53.086;5.834;2023-06-05T10:11:50;4.72;;;3.60;;
76113;SDS011;64845;53.086;5.834;2023-06-05T10:14:16;5.40;;;3.83;;
76113;SDS011;64845;53.086;5.834;2023-06-05T10:16:41;9.40;;;4.32;;
76113;SDS011;64845;53.086;5.834;2023-06-05T10:19:08;5.78;;;3.88;;
76113;SDS011;64845;53.086;5.834;2023-06-05T10:21:34;5.60;;;4.05;;
76113;SDS011;64845;53.086;5.834;2023-06-05T10:24:11;4.65;;;4.03;;
76113;SDS011;64845;53.086;5.834;2023-06-05T10:27:23;7.32;;;3.60;;
76113;SDS011;64845;53.086;5.834;2023-06-05T10:38:00;6.03;;;4.13;;
76113;SDS011;64845;53.086;5.834;2023-06-05T10:40:37;8.77;;;4.22;;
76113;SDS011;64845;53.086;5.834;2023-06-05T10:46:42;4.72;;;3.35;;
76113;SDS011;64845;53.086;5.834;2023-06-05T10:51:33;6.00;;;3.55;;
76113;SDS011;64845;53.086;5.834;2023-06-05T10:54:02;4.93;;;3.95;;
76113;SDS011;64845;53.086;5.834;2023-06-05T10:59:20;6.35;;;4.18;;
76113;SDS011;64845;53.086;5.834;2023-06-05T11:07:19;5.38;;;3.35;;
76113;SDS011;64845;53.086;5.834;2023-06-05T11:15:05;4.80;;;3.38;;
76113;SDS011;64845;53.086;5.834;2023-06-05T11:17:35;4.65;;;3.40;;
76113;SDS011;64845;53.086;5.834;2023-06-05T11:22:32;4.88;;;3.58;;
76113;SDS011;64845;53.086;5.834;2023-06-05T11:27:42;6.93;;;3.70;;
76113;SDS011;64845;53.086;5.834;2023-06-05T11:30:15;4.05;;;3.60;;
76113;SDS011;64845;53.086;5.834;2023-06-05T11:32:41;5.00;;;3.83;;
76113;SDS011;64845;53.086;5.834;2023-06-05T11:35:10;6.53;;;3.50;;
76113;SDS011;64845;53.086;5.834;2023-06-05T11:37:36;4.85;;;3.55;;
76113;SDS011;64845;53.086;5.834;2023-06-05T11:40:02;7.13;;;3.78;;
76113;SDS011;64845;53.086;5.834;2023-06-05T11:42:34;5.15;;;3.50;;
76113;SDS011;64845;53.086;5.834;2023-06-05T11:45:13;8.20;;;4.00;;
76113;SDS011;64845;53.086;5.834;2023-06-05T11:47:39;8.25;;;3.67;;
76113;SDS011;64845;53.086;5.834;2023-06-05T11:52:37;4.53;;;3.13;;
76113;SDS011;64845;53.086;5.834;2023-06-05T11:55:15;5.80;;;3.42;;
76113;SDS011;64845;53.086;5.834;2023-06-05T11:57:46;6.03;;;3.60;;
76113;SDS011;64845;53.086;5.834;2023-06-05T12:00:13;4.43;;;3.60;;
76113;SDS011;64845;53.086;5.834;2023-06-05T12:02:43;4.82;;;3.35;;
76113;SDS011;64845;53.086;5.834;2023-06-05T12:05:09;4.22;;;3.53;;
76113;SDS011;64845;53.086;5.834;2023-06-05T12:07:35;4.20;;;3.67;;
76113;SDS011;64845;53.086;5.834;2023-06-05T12:13:02;4.90;;;3.55;;
76113;SDS011;64845;53.086;5.834;2023-06-05T12:15:27;4.05;;;3.50;;
76113;SDS011;64845;53.086;5.834;2023-06-05T12:17:54;8.00;;;4.13;;
76113;SDS011;64845;53.086;5.834;2023-06-05T12:20:21;5.40;;;3.88;;
76113;SDS011;64845;53.086;5.834;2023-06-05T12:22:47;6.45;;;4.50;;
76113;SDS011;64845;53.086;5.834;2023-06-05T12:25:19;5.38;;;3.88;;
76113;SDS011;64845;53.086;5.834;2023-06-05T12:27:46;7.07;;;3.90;;
76113;SDS011;64845;53.086;5.834;2023-06-05T12:30:12;4.75;;;3.58;;
76113;SDS011;64845;53.086;5.834;2023-06-05T12:32:42;5.65;;;4.50;;
76113;SDS011;64845;53.086;5.834;2023-06-05T12:35:21;4.78;;;3.53;;
76113;SDS011;64845;53.086;5.834;2023-06-05T12:37:48;6.43;;;3.67;;
76113;SDS011;64845;53.086;5.834;2023-06-05T12:40:15;5.25;;;3.75;;
76113;SDS011;64845;53.086;5.834;2023-06-05T12:42:45;6.32;;;4.25;;
76113;SDS011;64845;53.086;5.834;2023-06-05T12:45:11;5.72;;;4.65;;
76113;SDS011;64845;53.086;5.834;2023-06-05T12:47:37;7.30;;;3.92;;
76113;SDS011;64845;53.086;5.834;2023-06-05T12:50:04;6.97;;;4.43;;
76113;SDS011;64845;53.086;5.834;2023-06-05T12:52:31;6.00;;;4.70;;
76113;SDS011;64845;53.086;5.834;2023-06-05T12:54:56;6.07;;;4.10;;
76113;SDS011;64845;53.086;5.834;2023-06-05T12:57:22;5.20;;;4.35;;
76113;SDS011;64845;53.086;5.834;2023-06-05T12:59:49;4.82;;;4.07;;
76113;SDS011;64845;53.086;5.834;2023-06-05T13:02:18;4.78;;;4.13;;
76113;SDS011;64845;53.086;5.834;2023-06-05T13:04:43;4.28;;;3.83;;
76113;SDS011;64845;53.086;5.834;2023-06-05T13:07:09;4.07;;;3.40;;
76113;SDS011;64845;53.086;5.834;2023-06-05T13:09:36;6.28;;;3.97;;
76113;SDS011;64845;53.086;5.834;2023-06-05T13:12:02;6.38;;;3.90;;
76113;SDS011;64845;53.086;5.834;2023-06-05T13:14:28;8.50;;;4.43;;
76113;SDS011;64845;53.086;5.834;2023-06-05T13:16:58;7.57;;;4.40;;
76113;SDS011;64845;53.086;5.834;2023-06-05T13:19:23;6.75;;;4.60;;
76113;SDS011;64845;53.086;5.834;2023-06-05T13:21:49;5.75;;;4.65;;
76113;SDS011;64845;53.086;5.834;2023-06-05T13:24:15;5.20;;;4.40;;
76113;SDS011;64845;53.086;5.834;2023-06-05T13:26:40;5.72;;;4.32;;
76113;SDS011;64845;53.086;5.834;2023-06-05T13:29:07;8.90;;;4.82;;
76113;SDS011;64845;53.086;5.834;2023-06-05T13:31:33;7.70;;;5.53;;
76113;SDS011;64845;53.086;5.834;2023-06-05T13:33:59;7.80;;;6.03;;
76113;SDS011;64845;53.086;5.834;2023-06-05T13:36:25;5.93;;;5.00;;
76113;SDS011;64845;53.086;5.834;2023-06-05T13:38:51;8.80;;;5.78;;
76113;SDS011;64845;53.086;5.834;2023-06-05T13:41:16;7.75;;;5.93;;
76113;SDS011;64845;53.086;5.834;2023-06-05T13:43:42;8.43;;;5.97;;
76113;SDS011;64845;53.086;5.834;2023-06-05T13:46:07;7.72;;;5.88;;
76113;SDS011;64845;53.086;5.834;2023-06-05T13:48:33;9.57;;;6.10;;
76113;SDS011;64845;53.086;5.834;2023-06-05T13:51:02;8.07;;;6.18;;
76113;SDS011;64845;53.086;5.834;2023-06-05T13:53:28;8.63;;;6.20;;
76113;SDS011;64845;53.086;5.834;2023-06-05T13:55:59;8.48;;;5.95;;
76113;SDS011;64845;53.086;5.834;2023-06-05T13:58:33;10.23;;;6.60;;
76113;SDS011;64845;53.086;5.834;2023-06-05T14:00:59;8.05;;;6.25;;
76113;SDS011;64845;53.086;5.834;2023-06-05T14:03:25;16.80;;;6.80;;
76113;SDS011;64845;53.086;5.834;2023-06-05T14:05:51;7.32;;;6.47;;
76113;SDS011;64845;53.086;5.834;2023-06-05T14:08:16;8.70;;;6.25;;
76113;SDS011;64845;53.086;5.834;2023-06-05T14:10:42;8.43;;;6.30;;
76113;SDS011;64845;53.086;5.834;2023-06-05T14:13:07;8.23;;;6.28;;
76113;SDS011;64845;53.086;5.834;2023-06-05T14:15:33;10.90;;;5.68;;
76113;SDS011;64845;53.086;5.834;2023-06-05T14:18:03;7.85;;;5.53;;
76113;SDS011;64845;53.086;5.834;2023-06-05T14:20:30;8.80;;;6.43;;
76113;SDS011;64845;53.086;5.834;2023-06-05T14:22:57;10.43;;;6.80;;
76113;SDS011;64845;53.086;5.834;2023-06-05T14:25:23;9.10;;;6.18;;
76113;SDS011;64845;53.086;5.834;2023-06-05T14:27:50;12.85;;;5.88;;
76113;SDS011;64845;53.086;5.834;2023-06-05T14:30:18;6.85;;;6.13;;
76113;SDS011;64845;53.086;5.834;2023-06-05T14:32:44;8.80;;;6.18;;
76113;SDS011;64845;53.086;5.834;2023-06-05T14:35:09;12.18;;;6.68;;
76113;SDS011;64845;53.086;5.834;2023-06-05T14:37:35;9.88;;;6.72;;
76113;SDS011;64845;53.086;5.834;2023-06-05T14:40:01;6.70;;;5.40;;
76113;SDS011;64845;53.086;5.834;2023-06-05T14:42:26;9.02;;;6.32;;
76113;SDS011;64845;53.086;5.834;2023-06-05T14:44:52;8.00;;;5.65;;
76113;SDS011;64845;53.086;5.834;2023-06-05T14:47:18;8.18;;;5.85;;
76113;SDS011;64845;53.086;5.834;2023-06-05T14:49:43;8.65;;;5.55;;
76113;SDS011;64845;53.086;5.834;2023-06-05T14:52:08;7.88;;;6.13;;
76113;SDS011;64845;53.086;5.834;2023-06-05T14:54:34;9.68;;;6.50;;
76113;SDS011;64845;53.086;5.834;2023-06-05T14:56:59;7.80;;;6.22;;
76113;SDS011;64845;53.086;5.834;2023-06-05T14:59:25;9.82;;;6.32;;
76113;SDS011;64845;53.086;5.834;2023-06-05T15:01:50;9.13;;;5.90;;
76113;SDS011;64845;53.086;5.834;2023-06-05T15:04:16;6.00;;;5.40;;
76113;SDS011;64845;53.086;5.834;2023-06-05T15:06:41;10.57;;;6.88;;
76113;SDS011;64845;53.086;5.834;2023-06-05T15:09:06;9.50;;;6.10;;
76113;SDS011;64845;53.086;5.834;2023-06-05T15:11:32;10.27;;;6.40;;
76113;SDS011;64845;53.086;5.834;2023-06-05T15:13:57;11.52;;;6.40;;
76113;SDS011;64845;53.086;5.834;2023-06-05T15:16:23;7.72;;;5.75;;
76113;SDS011;64845;53.086;5.834;2023-06-05T15:18:49;8.98;;;6.25;;
76113;SDS011;64845;53.086;5.834;2023-06-05T15:21:15;8.30;;;5.75;;
76113;SDS011;64845;53.086;5.834;2023-06-05T15:23:41;10.77;;;5.80;;
76113;SDS011;64845;53.086;5.834;2023-06-05T15:26:06;10.25;;;5.95;;
76113;SDS011;64845;53.086;5.834;2023-06-05T15:28:31;8.48;;;5.70;;
76113;SDS011;64845;53.086;5.834;2023-06-05T15:30:57;7.88;;;4.93;;
76113;SDS011;64845;53.086;5.834;2023-06-05T15:33:22;9.00;;;4.97;;